sensor_id;sensor_type;location;lat;lon;timestamp;temperature;humidity
21815;DHT22;11069;48.988;8.450;2023-09-30T00:01:57;17.90;99.90
21815;DHT22;11069;48.988;8.450;2023-09-30T00:04:24;17.90;99.90
21815;DHT22;11069;48.988;8.450;2023-09-30T00:06:49;17.80;99.90
21815;DHT22;11069;48.988;8.450;2023-09-30T00:09:15;17.90;99.90
21815;DHT22;11069;48.988;8.450;2023-09-30T00:11:41;17.80;99.90
21815;DHT22;11069;48.988;8.450;2023-09-30T00:14:07;17.80;99.90
21815;DHT22;11069;48.988;8.450;2023-09-30T00:16:33;17.80;99.90
21815;DHT22;11069;48.988;8.450;2023-09-30T00:18:59;17.80;99.90
21815;DHT22;11069;48.988;8.450;2023-09-30T00:21:25;17.80;99.90
21815;DHT22;11069;48.988;8.450;2023-09-30T00:23:50;17.80;99.90
21815;DHT22;11069;48.988;8.450;2023-09-30T00:26:16;17.80;99.90
21815;DHT22;11069;48.988;8.450;2023-09-30T00:28:45;17.90;99.90
21815;DHT22;11069;48.988;8.450;2023-09-30T00:31:11;17.90;99.90
21815;DHT22;11069;48.988;8.450;2023-09-30T00:33:37;17.80;99.90
21815;DHT22;11069;48.988;8.450;2023-09-30T00:36:07;17.80;99.90
21815;DHT22;11069;48.988;8.450;2023-09-30T00:38:33;17.80;99.90
21815;DHT22;11069;48.988;8.450;2023-09-30T00:40:59;17.80;99.90
21815;DHT22;11069;48.988;8.450;2023-09-30T00:43:24;17.70;99.90
21815;DHT22;11069;48.988;8.450;2023-09-30T00:46:03;17.70;99.90
21815;DHT22;11069;48.988;8.450;2023-09-30T00:48:34;17.80;99.90
21815;DHT22;11069;48.988;8.450;2023-09-30T00:51:01;17.80;99.90
21815;DHT22;11069;48.988;8.450;2023-09-30T00:53:28;17.80;99.90
21815;DHT22;11069;48.988;8.450;2023-09-30T00:55:55;17.70;99.90
21815;DHT22;11069;48.988;8.450;2023-09-30T00:58:22;17.70;99.90
21815;DHT22;11069;48.988;8.450;2023-09-30T01:00:52;17.70;99.90
21815;DHT22;11069;48.988;8.450;2023-09-30T01:03:18;17.60;99.90
21815;DHT22;11069;48.988;8.450;2023-09-30T01:05:45;17.50;99.90
21815;DHT22;11069;48.988;8.450;2023-09-30T01:08:11;17.40;99.90
21815;DHT22;11069;48.988;8.450;2023-09-30T01:10:37;17.30;99.90
21815;DHT22;11069;48.988;8.450;2023-09-30T01:13:02;17.10;99.90
21815;DHT22;11069;48.988;8.450;2023-09-30T01:15:31;17.10;99.90
21815;DHT22;11069;48.988;8.450;2023-09-30T01:17:57;17.10;99.90
21815;DHT22;11069;48.988;8.450;2023-09-30T01:20:23;17.00;99.90
21815;DHT22;11069;48.988;8.450;2023-09-30T01:22:49;16.90;99.90
21815;DHT22;11069;48.988;8.450;2023-09-30T01:25:15;16.80;99.90
21815;DHT22;11069;48.988;8.450;2023-09-30T01:27:41;16.80;99.90
21815;DHT22;11069;48.988;8.450;2023-09-30T01:30:07;16.70;99.90
21815;DHT22;11069;48.988;8.450;2023-09-30T01:32:37;16.80;99.90
21815;DHT22;11069;48.988;8.450;2023-09-30T01:35:03;16.80;99.90
21815;DHT22;11069;48.988;8.450;2023-09-30T01:37:28;16.80;99.90
21815;DHT22;11069;48.988;8.450;2023-09-30T01:39:55;16.80;99.90
21815;DHT22;11069;48.988;8.450;2023-09-30T01:42:21;16.80;99.90
21815;DHT22;11069;48.988;8.450;2023-09-30T01:44:46;16.80;99.90
21815;DHT22;11069;48.988;8.450;2023-09-30T01:47:12;16.90;99.90
21815;DHT22;11069;48.988;8.450;2023-09-30T01:49:38;16.90;99.90
21815;DHT22;11069;48.988;8.450;2023-09-30T01:52:04;16.90;99.90
21815;DHT22;11069;48.988;8.450;2023-09-30T01:54:30;16.80;99.90
21815;DHT22;11069;48.988;8.450;2023-09-30T01:56:55;16.80;99.90
21815;DHT22;11069;48.988;8.450;2023-09-30T01:59:21;16.80;99.90
21815;DHT22;11069;48.988;8.450;2023-09-30T02:01:48;16.80;99.90
21815;DHT22;11069;48.988;8.450;2023-09-30T02:04:14;16.80;99.90
21815;DHT22;11069;48.988;8.450;2023-09-30T02:06:43;16.70;99.90
21815;DHT22;11069;48.988;8.450;2023-09-30T02:09:08;16.70;99.90
21815;DHT22;11069;48.988;8.450;2023-09-30T02:11:37;16.70;99.90
21815;DHT22;11069;48.988;8.450;2023-09-30T02:14:04;16.80;99.90
21815;DHT22;11069;48.988;8.450;2023-09-30T02:16:32;16.70;99.90
21815;DHT22;11069;48.988;8.450;2023-09-30T02:18:58;16.60;99.90
21815;DHT22;11069;48.988;8.450;2023-09-30T02:21:24;16.70;99.90
21815;DHT22;11069;48.988;8.450;2023-09-30T02:23:50;16.60;99.90
21815;DHT22;11069;48.988;8.450;2023-09-30T02:26:21;16.60;99.90
21815;DHT22;11069;48.988;8.450;2023-09-30T02:28:47;16.60;99.90
21815;DHT22;11069;48.988;8.450;2023-09-30T02:31:14;16.50;99.90
21815;DHT22;11069;48.988;8.450;2023-09-30T02:33:43;16.50;99.90
21815;DHT22;11069;48.988;8.450;2023-09-30T02:36:09;16.50;99.90
21815;DHT22;11069;48.988;8.450;2023-09-30T02:38:35;16.50;99.90
21815;DHT22;11069;48.988;8.450;2023-09-30T02:41:04;16.60;99.90
21815;DHT22;11069;48.988;8.450;2023-09-30T02:43:30;16.60;99.90
21815;DHT22;11069;48.988;8.450;2023-09-30T02:45:56;16.50;99.90
21815;DHT22;11069;48.988;8.450;2023-09-30T02:48:22;16.50;99.90
21815;DHT22;11069;48.988;8.450;2023-09-30T02:50:48;16.50;99.90
21815;DHT22;11069;48.988;8.450;2023-09-30T02:53:14;16.40;99.90
21815;DHT22;11069;48.988;8.450;2023-09-30T02:55:41;16.40;99.90
21815;DHT22;11069;48.988;8.450;2023-09-30T02:58:08;16.30;99.90
21815;DHT22;11069;48.988;8.450;2023-09-30T03:00:37;16.30;99.90
21815;DHT22;11069;48.988;8.450;2023-09-30T03:03:03;16.20;99.90
21815;DHT22;11069;48.988;8.450;2023-09-30T03:05:30;16.30;99.90
21815;DHT22;11069;48.988;8.450;2023-09-30T03:07:59;16.30;99.90
21815;DHT22;11069;48.988;8.450;2023-09-30T03:10:25;16.30;99.90
21815;DHT22;11069;48.988;8.450;2023-09-30T03:12:56;16.20;99.90
21815;DHT22;11069;48.988;8.450;2023-09-30T03:15:27;16.20;99.90
21815;DHT22;11069;48.988;8.450;2023-09-30T03:17:56;16.20;99.90
21815;DHT22;11069;48.988;8.450;2023-09-30T03:20:22;16.10;99.90
21815;DHT22;11069;48.988;8.450;2023-09-30T03:22:50;16.00;99.90
21815;DHT22;11069;48.988;8.450;2023-09-30T03:25:17;16.00;99.90
21815;DHT22;11069;48.988;8.450;2023-09-30T03:27:44;16.00;99.90
21815;DHT22;11069;48.988;8.450;2023-09-30T03:30:12;16.00;99.90
21815;DHT22;11069;48.988;8.450;2023-09-30T03:32:39;15.90;99.90
21815;DHT22;11069;48.988;8.450;2023-09-30T03:35:08;15.80;99.90
21815;DHT22;11069;48.988;8.450;2023-09-30T03:37:39;15.90;99.90
21815;DHT22;11069;48.988;8.450;2023-09-30T03:40:06;15.90;99.90
21815;DHT22;11069;48.988;8.450;2023-09-30T03:42:40;15.90;99.90
21815;DHT22;11069;48.988;8.450;2023-09-30T03:45:08;15.90;99.90
21815;DHT22;11069;48.988;8.450;2023-09-30T03:47:36;15.90;99.90
21815;DHT22;11069;48.988;8.450;2023-09-30T03:50:02;15.80;99.90
21815;DHT22;11069;48.988;8.450;2023-09-30T03:52:29;15.70;99.90
21815;DHT22;11069;48.988;8.450;2023-09-30T03:54:55;15.70;99.90
21815;DHT22;11069;48.988;8.450;2023-09-30T03:57:27;15.60;99.90
21815;DHT22;11069;48.988;8.450;2023-09-30T03:59:53;15.60;99.90
21815;DHT22;11069;48.988;8.450;2023-09-30T04:02:19;15.60;99.90
21815;DHT22;11069;48.988;8.450;2023-09-30T04:04:44;15.50;99.90
21815;DHT22;11069;48.988;8.450;2023-09-30T04:07:12;15.50;99.90
21815;DHT22;11069;48.988;8.450;2023-09-30T04:09:38;15.50;99.90
21815;DHT22;11069;48.988;8.450;2023-09-30T04:12:05;15.40;99.90
21815;DHT22;11069;48.988;8.450;2023-09-30T04:14:31;15.30;99.90
21815;DHT22;11069;48.988;8.450;2023-09-30T04:16:56;15.30;99.90
21815;DHT22;11069;48.988;8.450;2023-09-30T04:19:23;15.30;99.90
21815;DHT22;11069;48.988;8.450;2023-09-30T04:21:49;15.30;99.90
21815;DHT22;11069;48.988;8.450;2023-09-30T04:24:15;15.30;99.90
21815;DHT22;11069;48.988;8.450;2023-09-30T04:26:40;15.30;99.90
21815;DHT22;11069;48.988;8.450;2023-09-30T04:29:07;15.40;99.90
21815;DHT22;11069;48.988;8.450;2023-09-30T04:31:39;15.40;99.90
21815;DHT22;11069;48.988;8.450;2023-09-30T04:34:04;15.50;99.90
21815;DHT22;11069;48.988;8.450;2023-09-30T04:36:31;15.50;99.90
21815;DHT22;11069;48.988;8.450;2023-09-30T04:38:57;15.50;99.90
21815;DHT22;11069;48.988;8.450;2023-09-30T04:41:26;15.50;99.90
21815;DHT22;11069;48.988;8.450;2023-09-30T04:43:52;15.40;99.90
21815;DHT22;11069;48.988;8.450;2023-09-30T04:46:18;15.40;99.90
21815;DHT22;11069;48.988;8.450;2023-09-30T04:48:48;15.40;99.90
21815;DHT22;11069;48.988;8.450;2023-09-30T04:51:17;15.30;99.90
21815;DHT22;11069;48.988;8.450;2023-09-30T04:53:46;15.30;99.90
21815;DHT22;11069;48.988;8.450;2023-09-30T04:56:12;15.20;99.90
21815;DHT22;11069;48.988;8.450;2023-09-30T04:58:38;15.20;99.90
21815;DHT22;11069;48.988;8.450;2023-09-30T05:01:04;15.20;99.90
21815;DHT22;11069;48.988;8.450;2023-09-30T05:03:30;15.10;99.90
21815;DHT22;11069;48.988;8.450;2023-09-30T05:05:55;15.00;99.90
21815;DHT22;11069;48.988;8.450;2023-09-30T05:08:23;15.00;99.90
21815;DHT22;11069;48.988;8.450;2023-09-30T05:10:49;15.00;99.90
21815;DHT22;11069;48.988;8.450;2023-09-30T05:13:15;15.00;99.90
21815;DHT22;11069;48.988;8.450;2023-09-30T05:15:40;15.00;99.90
21815;DHT22;11069;48.988;8.450;2023-09-30T05:18:07;15.00;99.90
21815;DHT22;11069;48.988;8.450;2023-09-30T05:20:35;14.90;99.90
21815;DHT22;11069;48.988;8.450;2023-09-30T05:23:03;14.80;99.90
21815;DHT22;11069;48.988;8.450;2023-09-30T05:25:29;14.70;99.90
21815;DHT22;11069;48.988;8.450;2023-09-30T05:27:54;14.60;99.90
21815;DHT22;11069;48.988;8.450;2023-09-30T05:30:20;14.50;99.90
21815;DHT22;11069;48.988;8.450;2023-09-30T05:32:46;14.50;99.90
21815;DHT22;11069;48.988;8.450;2023-09-30T05:35:12;14.50;99.90
21815;DHT22;11069;48.988;8.450;2023-09-30T05:37:42;14.50;99.90
21815;DHT22;11069;48.988;8.450;2023-09-30T05:40:08;14.40;99.90
21815;DHT22;11069;48.988;8.450;2023-09-30T05:42:54;14.40;99.90
21815;DHT22;11069;48.988;8.450;2023-09-30T05:45:22;14.40;99.90
21815;DHT22;11069;48.988;8.450;2023-09-30T05:47:49;14.40;99.90
21815;DHT22;11069;48.988;8.450;2023-09-30T05:50:15;14.30;99.90
21815;DHT22;11069;48.988;8.450;2023-09-30T05:52:42;14.40;99.90
21815;DHT22;11069;48.988;8.450;2023-09-30T05:55:10;14.40;99.90
21815;DHT22;11069;48.988;8.450;2023-09-30T05:57:36;14.40;99.90
21815;DHT22;11069;48.988;8.450;2023-09-30T06:00:03;14.30;99.90
21815;DHT22;11069;48.988;8.450;2023-09-30T06:02:40;14.20;99.90
21815;DHT22;11069;48.988;8.450;2023-09-30T06:05:06;14.30;99.90
21815;DHT22;11069;48.988;8.450;2023-09-30T06:07:32;14.30;99.90
21815;DHT22;11069;48.988;8.450;2023-09-30T06:09:59;14.30;99.90
21815;DHT22;11069;48.988;8.450;2023-09-30T06:12:28;14.20;99.90
21815;DHT22;11069;48.988;8.450;2023-09-30T06:14:54;14.30;99.90
21815;DHT22;11069;48.988;8.450;2023-09-30T06:17:20;14.30;99.90
21815;DHT22;11069;48.988;8.450;2023-09-30T06:19:48;14.30;99.90
21815;DHT22;11069;48.988;8.450;2023-09-30T06:22:15;14.40;99.90
21815;DHT22;11069;48.988;8.450;2023-09-30T06:24:41;14.50;99.90
21815;DHT22;11069;48.988;8.450;2023-09-30T06:27:07;14.50;99.90
21815;DHT22;11069;48.988;8.450;2023-09-30T06:29:35;14.60;99.90
21815;DHT22;11069;48.988;8.450;2023-09-30T06:32:01;14.70;99.90
21815;DHT22;11069;48.988;8.450;2023-09-30T06:34:27;14.90;99.90
21815;DHT22;11069;48.988;8.450;2023-09-30T06:36:53;15.00;99.90
21815;DHT22;11069;48.988;8.450;2023-09-30T06:39:19;15.20;99.90
21815;DHT22;11069;48.988;8.450;2023-09-30T06:41:44;15.30;99.90
21815;DHT22;11069;48.988;8.450;2023-09-30T06:44:12;15.40;99.90
21815;DHT22;11069;48.988;8.450;2023-09-30T06:46:38;15.50;99.90
21815;DHT22;11069;48.988;8.450;2023-09-30T06:49:04;15.50;99.90
21815;DHT22;11069;48.988;8.450;2023-09-30T06:51:30;15.70;99.90
21815;DHT22;11069;48.988;8.450;2023-09-30T06:53:56;15.70;99.90
21815;DHT22;11069;48.988;8.450;2023-09-30T06:56:22;15.70;99.90
21815;DHT22;11069;48.988;8.450;2023-09-30T06:58:48;15.70;99.90
21815;DHT22;11069;48.988;8.450;2023-09-30T07:01:17;15.80;99.90
21815;DHT22;11069;48.988;8.450;2023-09-30T07:03:43;16.00;99.90
21815;DHT22;11069;48.988;8.450;2023-09-30T07:06:08;16.10;99.90
21815;DHT22;11069;48.988;8.450;2023-09-30T07:08:34;16.20;99.90
21815;DHT22;11069;48.988;8.450;2023-09-30T07:11:00;16.30;99.90
21815;DHT22;11069;48.988;8.450;2023-09-30T07:13:25;16.40;99.90
21815;DHT22;11069;48.988;8.450;2023-09-30T07:15:51;16.60;99.90
21815;DHT22;11069;48.988;8.450;2023-09-30T07:18:17;16.80;99.90
21815;DHT22;11069;48.988;8.450;2023-09-30T07:20:43;16.80;99.90
21815;DHT22;11069;48.988;8.450;2023-09-30T07:23:09;17.00;99.90
21815;DHT22;11069;48.988;8.450;2023-09-30T07:25:34;16.90;99.90
21815;DHT22;11069;48.988;8.450;2023-09-30T07:28:01;16.80;99.90
21815;DHT22;11069;48.988;8.450;2023-09-30T07:30:27;16.90;99.90
21815;DHT22;11069;48.988;8.450;2023-09-30T07:32:52;17.20;99.90
21815;DHT22;11069;48.988;8.450;2023-09-30T07:35:23;17.40;99.90
21815;DHT22;11069;48.988;8.450;2023-09-30T07:37:48;17.60;99.90
21815;DHT22;11069;48.988;8.450;2023-09-30T07:40:17;17.40;99.90
21815;DHT22;11069;48.988;8.450;2023-09-30T07:42:44;17.20;99.90
21815;DHT22;11069;48.988;8.450;2023-09-30T07:45:09;17.00;99.90
21815;DHT22;11069;48.988;8.450;2023-09-30T07:47:36;17.20;99.90
21815;DHT22;11069;48.988;8.450;2023-09-30T07:50:03;17.30;99.90
21815;DHT22;11069;48.988;8.450;2023-09-30T07:52:35;17.50;99.90
21815;DHT22;11069;48.988;8.450;2023-09-30T07:55:01;17.60;99.90
21815;DHT22;11069;48.988;8.450;2023-09-30T07:57:27;17.80;99.90
21815;DHT22;11069;48.988;8.450;2023-09-30T07:59:52;17.70;99.90
21815;DHT22;11069;48.988;8.450;2023-09-30T08:02:18;17.70;99.90
21815;DHT22;11069;48.988;8.450;2023-09-30T08:04:44;18.10;99.90
21815;DHT22;11069;48.988;8.450;2023-09-30T08:07:09;18.60;99.90
21815;DHT22;11069;48.988;8.450;2023-09-30T08:09:35;19.00;99.90
21815;DHT22;11069;48.988;8.450;2023-09-30T08:12:02;19.40;99.90
21815;DHT22;11069;48.988;8.450;2023-09-30T08:14:28;19.60;99.90
21815;DHT22;11069;48.988;8.450;2023-09-30T08:16:54;19.60;99.90
21815;DHT22;11069;48.988;8.450;2023-09-30T08:19:19;19.10;99.90
21815;DHT22;11069;48.988;8.450;2023-09-30T08:21:46;19.30;99.90
21815;DHT22;11069;48.988;8.450;2023-09-30T08:24:12;19.60;99.90
21815;DHT22;11069;48.988;8.450;2023-09-30T08:26:37;20.10;99.90
21815;DHT22;11069;48.988;8.450;2023-09-30T08:29:03;19.60;99.90
21815;DHT22;11069;48.988;8.450;2023-09-30T08:31:29;19.40;99.90
21815;DHT22;11069;48.988;8.450;2023-09-30T08:33:55;19.80;99.90
21815;DHT22;11069;48.988;8.450;2023-09-30T08:36:20;19.50;99.90
21815;DHT22;11069;48.988;8.450;2023-09-30T08:38:46;19.90;99.90
21815;DHT22;11069;48.988;8.450;2023-09-30T08:41:25;20.30;99.90
21815;DHT22;11069;48.988;8.450;2023-09-30T08:43:55;20.40;99.90
21815;DHT22;11069;48.988;8.450;2023-09-30T08:46:25;20.30;99.90
21815;DHT22;11069;48.988;8.450;2023-09-30T08:48:51;20.60;99.90
21815;DHT22;11069;48.988;8.450;2023-09-30T08:51:17;20.80;99.90
21815;DHT22;11069;48.988;8.450;2023-09-30T08:53:44;20.90;99.90
21815;DHT22;11069;48.988;8.450;2023-09-30T08:56:10;21.40;99.90
21815;DHT22;11069;48.988;8.450;2023-09-30T08:58:37;21.60;99.90
21815;DHT22;11069;48.988;8.450;2023-09-30T09:01:03;21.70;99.90
21815;DHT22;11069;48.988;8.450;2023-09-30T09:03:29;21.70;99.90
21815;DHT22;11069;48.988;8.450;2023-09-30T09:05:57;21.40;99.90
21815;DHT22;11069;48.988;8.450;2023-09-30T09:08:26;21.60;99.90
21815;DHT22;11069;48.988;8.450;2023-09-30T09:10:56;21.60;99.90
21815;DHT22;11069;48.988;8.450;2023-09-30T09:13:22;21.60;99.90
21815;DHT22;11069;48.988;8.450;2023-09-30T09:15:48;22.00;99.90
21815;DHT22;11069;48.988;8.450;2023-09-30T09:18:31;22.50;99.90
21815;DHT22;11069;48.988;8.450;2023-09-30T09:21:27;22.80;99.90
21815;DHT22;11069;48.988;8.450;2023-09-30T09:23:53;23.10;99.90
21815;DHT22;11069;48.988;8.450;2023-09-30T09:26:27;23.00;99.90
21815;DHT22;11069;48.988;8.450;2023-09-30T09:29:03;23.00;99.90
21815;DHT22;11069;48.988;8.450;2023-09-30T09:31:32;23.50;99.90
21815;DHT22;11069;48.988;8.450;2023-09-30T09:34:00;22.80;99.90
21815;DHT22;11069;48.988;8.450;2023-09-30T09:36:39;22.30;99.90
21815;DHT22;11069;48.988;8.450;2023-09-30T09:39:06;21.50;99.90
21815;DHT22;11069;48.988;8.450;2023-09-30T09:41:32;21.00;99.90
21815;DHT22;11069;48.988;8.450;2023-09-30T09:43:59;21.10;99.90
21815;DHT22;11069;48.988;8.450;2023-09-30T09:46:26;21.40;99.90
21815;DHT22;11069;48.988;8.450;2023-09-30T09:48:53;21.10;99.90
21815;DHT22;11069;48.988;8.450;2023-09-30T09:51:20;21.50;99.90
21815;DHT22;11069;48.988;8.450;2023-09-30T09:53:48;21.40;99.90
21815;DHT22;11069;48.988;8.450;2023-09-30T09:56:15;21.50;99.90
21815;DHT22;11069;48.988;8.450;2023-09-30T09:58:42;20.80;99.90
21815;DHT22;11069;48.988;8.450;2023-09-30T10:01:09;20.90;99.90
21815;DHT22;11069;48.988;8.450;2023-09-30T10:03:37;21.30;99.90
21815;DHT22;11069;48.988;8.450;2023-09-30T10:06:04;21.20;99.90
21815;DHT22;11069;48.988;8.450;2023-09-30T10:08:41;21.50;99.90
21815;DHT22;11069;48.988;8.450;2023-09-30T10:11:09;22.00;99.90
21815;DHT22;11069;48.988;8.450;2023-09-30T10:13:55;22.10;99.90
21815;DHT22;11069;48.988;8.450;2023-09-30T10:19:19;21.30;99.90
21815;DHT22;11069;48.988;8.450;2023-09-30T10:24:46;21.10;99.90
21815;DHT22;11069;48.988;8.450;2023-09-30T10:40:51;21.00;99.90
21815;DHT22;11069;48.988;8.450;2023-09-30T10:43:36;20.90;99.90
21815;DHT22;11069;48.988;8.450;2023-09-30T10:46:03;21.10;99.90
21815;DHT22;11069;48.988;8.450;2023-09-30T10:48:33;21.10;99.90
21815;DHT22;11069;48.988;8.450;2023-09-30T10:51:10;21.10;99.90
21815;DHT22;11069;48.988;8.450;2023-09-30T10:53:50;21.90;99.90
21815;DHT22;11069;48.988;8.450;2023-09-30T10:56:22;23.20;99.90
21815;DHT22;11069;48.988;8.450;2023-09-30T10:58:53;22.90;99.90
21815;DHT22;11069;48.988;8.450;2023-09-30T11:01:23;22.20;99.90
21815;DHT22;11069;48.988;8.450;2023-09-30T11:03:50;22.00;99.90
21815;DHT22;11069;48.988;8.450;2023-09-30T11:06:19;21.50;99.90
21815;DHT22;11069;48.988;8.450;2023-09-30T11:09:00;21.90;99.90
21815;DHT22;11069;48.988;8.450;2023-09-30T11:11:39;22.70;99.90
21815;DHT22;11069;48.988;8.450;2023-09-30T11:14:27;22.70;99.90
21815;DHT22;11069;48.988;8.450;2023-09-30T11:17:01;22.60;99.90
21815;DHT22;11069;48.988;8.450;2023-09-30T11:19:36;22.60;99.90
21815;DHT22;11069;48.988;8.450;2023-09-30T11:22:05;22.60;99.90
21815;DHT22;11069;48.988;8.450;2023-09-30T11:24:35;23.10;99.90
21815;DHT22;11069;48.988;8.450;2023-09-30T11:27:01;22.80;99.90
21815;DHT22;11069;48.988;8.450;2023-09-30T11:29:27;22.60;99.90
21815;DHT22;11069;48.988;8.450;2023-09-30T11:31:53;22.20;99.90
21815;DHT22;11069;48.988;8.450;2023-09-30T11:34:19;22.40;99.90
21815;DHT22;11069;48.988;8.450;2023-09-30T11:36:52;23.30;99.90
21815;DHT22;11069;48.988;8.450;2023-09-30T11:39:22;23.30;99.90
21815;DHT22;11069;48.988;8.450;2023-09-30T11:41:49;24.10;98.40
21815;DHT22;11069;48.988;8.450;2023-09-30T11:44:15;23.40;99.90
21815;DHT22;11069;48.988;8.450;2023-09-30T11:49:40;21.80;99.90
21815;DHT22;11069;48.988;8.450;2023-09-30T11:52:12;21.70;99.90
21815;DHT22;11069;48.988;8.450;2023-09-30T11:57:07;20.90;99.90
21815;DHT22;11069;48.988;8.450;2023-09-30T11:59:35;21.00;99.90
21815;DHT22;11069;48.988;8.450;2023-09-30T12:02:09;21.60;99.90
21815;DHT22;11069;48.988;8.450;2023-09-30T12:04:35;22.30;99.90
21815;DHT22;11069;48.988;8.450;2023-09-30T12:07:01;22.90;99.90
21815;DHT22;11069;48.988;8.450;2023-09-30T12:09:27;22.60;99.90
21815;DHT22;11069;48.988;8.450;2023-09-30T12:11:54;22.80;99.90
21815;DHT22;11069;48.988;8.450;2023-09-30T12:14:21;22.90;99.90
21815;DHT22;11069;48.988;8.450;2023-09-30T12:16:47;22.70;99.90
21815;DHT22;11069;48.988;8.450;2023-09-30T12:19:18;23.00;99.90
21815;DHT22;11069;48.988;8.450;2023-09-30T12:21:45;23.40;99.90
21815;DHT22;11069;48.988;8.450;2023-09-30T12:24:14;23.10;99.70
21815;DHT22;11069;48.988;8.450;2023-09-30T12:26:46;23.00;99.70
21815;DHT22;11069;48.988;8.450;2023-09-30T12:29:19;23.40;99.90
21815;DHT22;11069;48.988;8.450;2023-09-30T12:31:45;23.00;99.90
21815;DHT22;11069;48.988;8.450;2023-09-30T12:34:12;23.40;99.90
21815;DHT22;11069;48.988;8.450;2023-09-30T12:36:38;23.90;99.90
21815;DHT22;11069;48.988;8.450;2023-09-30T12:39:04;23.60;99.80
21815;DHT22;11069;48.988;8.450;2023-09-30T12:41:40;23.50;98.80
21815;DHT22;11069;48.988;8.450;2023-09-30T12:44:06;23.30;99.30
21815;DHT22;11069;48.988;8.450;2023-09-30T12:46:32;23.40;98.90
21815;DHT22;11069;48.988;8.450;2023-09-30T12:49:01;23.90;97.40
21815;DHT22;11069;48.988;8.450;2023-09-30T12:51:27;23.90;98.10
21815;DHT22;11069;48.988;8.450;2023-09-30T12:53:53;24.70;97.70
21815;DHT22;11069;48.988;8.450;2023-09-30T12:56:19;24.50;96.60
21815;DHT22;11069;48.988;8.450;2023-09-30T12:58:44;25.30;97.50
21815;DHT22;11069;48.988;8.450;2023-09-30T13:01:10;25.10;95.50
21815;DHT22;11069;48.988;8.450;2023-09-30T13:03:37;23.90;94.70
21815;DHT22;11069;48.988;8.450;2023-09-30T13:06:03;23.50;96.90
21815;DHT22;11069;48.988;8.450;2023-09-30T13:08:29;23.40;97.10
21815;DHT22;11069;48.988;8.450;2023-09-30T13:11:00;24.00;97.30
21815;DHT22;11069;48.988;8.450;2023-09-30T13:13:28;23.50;96.60
21815;DHT22;11069;48.988;8.450;2023-09-30T13:15:56;23.40;96.30
21815;DHT22;11069;48.988;8.450;2023-09-30T13:18:22;23.70;97.30
21815;DHT22;11069;48.988;8.450;2023-09-30T13:20:48;23.50;96.40
21815;DHT22;11069;48.988;8.450;2023-09-30T13:23:13;23.10;97.90
21815;DHT22;11069;48.988;8.450;2023-09-30T13:25:39;23.10;96.50
21815;DHT22;11069;48.988;8.450;2023-09-30T13:28:05;23.10;97.00
21815;DHT22;11069;48.988;8.450;2023-09-30T13:30:30;23.40;96.80
21815;DHT22;11069;48.988;8.450;2023-09-30T13:32:57;22.90;95.70
21815;DHT22;11069;48.988;8.450;2023-09-30T13:35:23;22.80;95.70
21815;DHT22;11069;48.988;8.450;2023-09-30T13:37:48;23.20;96.40
21815;DHT22;11069;48.988;8.450;2023-09-30T13:40:14;24.10;94.10
21815;DHT22;11069;48.988;8.450;2023-09-30T13:42:39;24.00;94.90
21815;DHT22;11069;48.988;8.450;2023-09-30T13:45:06;23.60;93.80
21815;DHT22;11069;48.988;8.450;2023-09-30T13:47:32;23.30;94.40
21815;DHT22;11069;48.988;8.450;2023-09-30T13:49:58;23.20;95.30
21815;DHT22;11069;48.988;8.450;2023-09-30T13:52:23;23.30;94.40
21815;DHT22;11069;48.988;8.450;2023-09-30T13:54:49;23.00;95.60
21815;DHT22;11069;48.988;8.450;2023-09-30T13:57:15;22.70;95.20
21815;DHT22;11069;48.988;8.450;2023-09-30T13:59:40;22.70;95.20
21815;DHT22;11069;48.988;8.450;2023-09-30T14:02:07;22.80;95.10
21815;DHT22;11069;48.988;8.450;2023-09-30T14:04:33;23.50;93.70
21815;DHT22;11069;48.988;8.450;2023-09-30T14:07:01;23.90;94.30
21815;DHT22;11069;48.988;8.450;2023-09-30T14:09:28;23.60;95.30
21815;DHT22;11069;48.988;8.450;2023-09-30T14:11:54;24.10;93.10
21815;DHT22;11069;48.988;8.450;2023-09-30T14:14:20;23.70;94.80
21815;DHT22;11069;48.988;8.450;2023-09-30T14:16:45;23.50;94.60
21815;DHT22;11069;48.988;8.450;2023-09-30T14:19:12;23.30;93.90
21815;DHT22;11069;48.988;8.450;2023-09-30T14:21:39;22.80;94.20
21815;DHT22;11069;48.988;8.450;2023-09-30T14:24:05;22.80;95.80
21815;DHT22;11069;48.988;8.450;2023-09-30T14:26:32;23.20;95.20
21815;DHT22;11069;48.988;8.450;2023-09-30T14:28:58;23.90;93.40
21815;DHT22;11069;48.988;8.450;2023-09-30T14:31:24;23.90;93.60
21815;DHT22;11069;48.988;8.450;2023-09-30T14:33:50;23.90;92.90
21815;DHT22;11069;48.988;8.450;2023-09-30T14:36:19;23.70;92.20
21815;DHT22;11069;48.988;8.450;2023-09-30T14:38:45;23.20;94.30
21815;DHT22;11069;48.988;8.450;2023-09-30T14:41:12;23.00;94.40
21815;DHT22;11069;48.988;8.450;2023-09-30T14:43:38;23.10;95.20
21815;DHT22;11069;48.988;8.450;2023-09-30T14:46:04;22.80;95.40
21815;DHT22;11069;48.988;8.450;2023-09-30T14:48:30;22.40;95.10
21815;DHT22;11069;48.988;8.450;2023-09-30T14:50:56;22.10;95.50
21815;DHT22;11069;48.988;8.450;2023-09-30T14:53:22;22.20;96.60
21815;DHT22;11069;48.988;8.450;2023-09-30T14:55:48;22.00;95.10
21815;DHT22;11069;48.988;8.450;2023-09-30T14:58:14;22.10;95.40
21815;DHT22;11069;48.988;8.450;2023-09-30T15:00:39;22.30;96.10
21815;DHT22;11069;48.988;8.450;2023-09-30T15:03:05;22.30;97.20
21815;DHT22;11069;48.988;8.450;2023-09-30T15:05:32;22.30;97.20
21815;DHT22;11069;48.988;8.450;2023-09-30T15:07:58;22.20;96.30
21815;DHT22;11069;48.988;8.450;2023-09-30T15:10:25;22.40;96.00
21815;DHT22;11069;48.988;8.450;2023-09-30T15:12:50;22.20;97.10
21815;DHT22;11069;48.988;8.450;2023-09-30T15:15:16;21.90;98.40
21815;DHT22;11069;48.988;8.450;2023-09-30T15:17:42;21.60;98.60
21815;DHT22;11069;48.988;8.450;2023-09-30T15:20:08;21.50;99.20
21815;DHT22;11069;48.988;8.450;2023-09-30T15:22:34;21.40;99.60
21815;DHT22;11069;48.988;8.450;2023-09-30T15:25:01;21.40;99.90
21815;DHT22;11069;48.988;8.450;2023-09-30T15:27:27;21.30;99.90
21815;DHT22;11069;48.988;8.450;2023-09-30T15:29:53;21.10;99.90
21815;DHT22;11069;48.988;8.450;2023-09-30T15:32:20;20.90;99.90
21815;DHT22;11069;48.988;8.450;2023-09-30T15:34:47;20.80;99.90
21815;DHT22;11069;48.988;8.450;2023-09-30T15:37:13;20.90;99.90
21815;DHT22;11069;48.988;8.450;2023-09-30T15:39:40;20.80;99.90
21815;DHT22;11069;48.988;8.450;2023-09-30T15:42:07;20.90;99.90
21815;DHT22;11069;48.988;8.450;2023-09-30T15:44:37;20.90;99.90
21815;DHT22;11069;48.988;8.450;2023-09-30T15:47:05;20.90;99.90
21815;DHT22;11069;48.988;8.450;2023-09-30T15:49:32;20.90;99.90
21815;DHT22;11069;48.988;8.450;2023-09-30T15:51:57;21.00;99.90
21815;DHT22;11069;48.988;8.450;2023-09-30T15:54:23;20.90;99.90
21815;DHT22;11069;48.988;8.450;2023-09-30T15:56:49;20.90;99.90